Time;durP1;ratioP1;P1;durP2;ratioP2;P2;SDS_P1;SDS_P2;PMS_P1;PMS_P2;Temp;Humidity;BMP_temperature;BMP_pressure;BME280_temperature;BME280_humidity;BME280_pressure;Samples;Min_cycle;Max_cycle;Signal;HPM_P1;HPM_P2
2023/05/13 00:00:29;;;;;;;9.13;7.13;;;11.40;99.90;;;;;;10504734;28;20225;-71
2023/05/13 00:05:30;;;;;;;12.97;7.37;;;11.30;99.90;;;;;;10487885;28;20190;-70
2023/05/13 00:10:30;;;;;;;9.57;7.43;;;11.30;99.90;;;;;;10504408;28;20207;-72
2023/05/13 00:15:31;;;;;;;7.90;7.10;;;11.20;99.90;;;;;;10522883;28;20265;-71
2023/05/13 00:20:31;;;;;;;10.70;6.37;;;11.30;99.90;;;;;;10510938;28;20617;-72
2023/05/13 00:25:32;;;;;;;8.70;7.10;;;11.20;99.90;;;;;;10519048;28;20751;-71
2023/05/13 00:30:33;;;;;;;8.20;6.43;;;11.20;99.90;;;;;;10493528;28;20257;-71
2023/05/13 00:35:33;;;;;;;8.40;7.30;;;11.10;99.90;;;;;;10495651;28;20723;-71
2023/05/13 00:40:38;;;;;;;8.00;6.47;;;11.10;99.90;;;;;;10508395;28;20678;-71
2023/05/13 00:45:39;;;;;;;8.97;7.33;;;11.10;99.90;;;;;;10494120;28;20225;-71
2023/05/13 00:50:43;;;;;;;11.27;8.20;;;11.10;99.90;;;;;;10525232;28;20687;-71
2023/05/13 00:55:44;;;;;;;7.57;6.87;;;11.20;99.90;;;;;;10510690;28;20222;-71
2023/05/13 01:00:56;;;;;;;8.00;7.20;;;11.30;99.90;;;;;;10512570;28;20223;-71
2023/05/13 01:06:20;;;;;;;9.70;6.73;;;11.20;99.90;;;;;;10509962;28;20276;-71
2023/05/13 01:11:28;;;;;;;7.93;6.97;;;11.10;99.90;;;;;;10508220;28;20304;-72
2023/05/13 01:16:31;;;;;;;8.73;6.47;;;11.20;99.90;;;;;;10493789;28;20229;-71
2023/05/13 01:21:35;;;;;;;8.07;6.70;;;11.10;99.90;;;;;;10512413;28;20227;-71
2023/05/13 01:26:36;;;;;;;12.77;6.53;;;11.20;99.90;;;;;;10491570;28;20229;-72
2023/05/13 01:31:38;;;;;;;8.73;6.67;;;11.20;99.90;;;;;;10513746;28;20598;-71
2023/05/13 01:36:39;;;;;;;7.93;6.20;;;11.20;99.90;;;;;;10509431;28;20234;-72
2023/05/13 01:41:39;;;;;;;7.10;5.90;;;11.20;99.90;;;;;;10505129;28;20218;-71
2023/05/13 01:46:42;;;;;;;7.23;6.37;;;11.30;99.90;;;;;;10509791;28;20218;-72
2023/05/13 01:51:43;;;;;;;14.50;8.30;;;11.30;99.90;;;;;;10514017;28;20924;-71
2023/05/13 01:56:44;;;;;;;17.63;8.17;;;11.30;99.90;;;;;;10510639;28;20234;-70
2023/05/13 02:01:45;;;;;;;22.33;11.00;;;11.30;99.90;;;;;;10490978;28;20377;-72
2023/05/13 02:06:48;;;;;;;12.43;7.43;;;11.30;99.90;;;;;;10496392;28;20219;-71
2023/05/13 02:11:51;;;;;;;9.70;6.37;;;11.20;99.90;;;;;;10510664;28;20222;-71
2023/05/13 02:16:55;;;;;;;8.83;6.00;;;11.20;99.90;;;;;;10505207;28;20294;-71
2023/05/13 02:21:56;;;;;;;9.17;5.67;;;11.20;99.90;;;;;;10495238;28;20265;-73
2023/05/13 02:26:57;;;;;;;7.50;5.50;;;11.20;99.90;;;;;;10493302;28;20275;-70
2023/05/13 02:31:57;;;;;;;6.47;4.93;;;11.20;99.90;;;;;;10486676;28;20716;-71
2023/05/13 02:36:58;;;;;;;9.80;5.10;;;11.30;99.90;;;;;;10495045;28;20223;-72
2023/05/13 02:41:58;;;;;;;5.53;4.90;;;11.30;99.90;;;;;;10493440;28;20683;-71
2023/05/13 02:46:59;;;;;;;7.47;5.30;;;11.30;99.90;;;;;;10509451;28;20210;-71
2023/05/13 02:52:00;;;;;;;8.07;5.30;;;11.30;99.90;;;;;;10531474;28;20759;-72
2023/05/13 02:57:00;;;;;;;5.87;5.27;;;11.20;99.90;;;;;;10513252;28;20253;-71
2023/05/13 03:02:01;;;;;;;8.03;5.70;;;11.10;99.90;;;;;;10519163;28;20313;-70
2023/05/13 03:07:01;;;;;;;5.80;5.30;;;11.00;99.90;;;;;;10513479;28;20269;-71
2023/05/13 03:12:02;;;;;;;6.77;5.83;;;10.80;99.90;;;;;;10518846;28;20214;-71
2023/05/13 03:17:06;;;;;;;6.73;5.73;;;10.80;99.90;;;;;;10519270;28;20218;-71
2023/05/13 03:22:06;;;;;;;7.20;5.53;;;10.70;99.90;;;;;;10519758;28;20224;-70
2023/05/13 03:27:07;;;;;;;5.80;5.30;;;10.70;99.90;;;;;;10519697;28;20230;-71
2023/05/13 03:32:08;;;;;;;8.43;5.73;;;10.70;99.90;;;;;;10511620;28;20250;-70
2023/05/13 03:37:08;;;;;;;8.27;5.37;;;10.70;99.90;;;;;;10519340;28;20222;-70
2023/05/13 03:42:09;;;;;;;6.20;5.60;;;10.80;99.90;;;;;;10501115;28;20302;-71
2023/05/13 03:47:10;;;;;;;8.27;5.60;;;10.80;99.90;;;;;;10500480;28;20280;-71
2023/05/13 03:52:10;;;;;;;6.20;5.60;;;10.80;99.90;;;;;;10518483;28;20660;-71
2023/05/13 03:57:11;;;;;;;11.33;5.90;;;10.80;99.90;;;;;;10501729;28;20914;-72
2023/05/13 04:02:11;;;;;;;11.57;7.13;;;10.70;99.90;;;;;;10500466;28;20697;-72
2023/05/13 04:07:12;;;;;;;17.73;9.07;;;10.80;99.90;;;;;;10517512;28;20947;-71
2023/05/13 04:12:13;;;;;;;15.93;8.63;;;10.80;99.90;;;;;;10491845;28;20253;-71
2023/05/13 04:17:13;;;;;;;19.53;8.40;;;10.90;99.90;;;;;;10516511;28;20351;-71
2023/05/13 04:22:14;;;;;;;11.03;6.40;;;11.00;99.90;;;;;;10509756;28;20226;-72
2023/05/13 04:27:15;;;;;;;7.67;5.27;;;11.10;99.90;;;;;;10498206;28;20310;-71
2023/05/13 04:32:20;;;;;;;6.77;4.70;;;11.30;99.90;;;;;;10498734;28;20396;-72
2023/05/13 04:37:20;;;;;;;8.27;4.63;;;11.40;99.90;;;;;;10516538;28;20218;-72
2023/05/13 04:42:21;;;;;;;6.77;4.43;;;11.60;99.90;;;;;;10516734;28;20773;-72
2023/05/13 04:47:22;;;;;;;7.27;4.40;;;11.70;99.90;;;;;;10511719;28;20601;-70
2023/05/13 04:52:22;;;;;;;6.30;4.10;;;11.80;99.90;;;;;;10515970;28;20230;-71
2023/05/13 04:57:23;;;;;;;4.80;4.07;;;11.90;99.90;;;;;;10509707;28;20223;-71
2023/05/13 05:02:23;;;;;;;4.40;4.00;;;12.10;99.90;;;;;;10514624;28;20221;-70
2023/05/13 05:07:28;;;;;;;11.73;4.33;;;12.40;99.90;;;;;;10509142;28;20585;-72
2023/05/13 05:12:30;;;;;;;7.70;4.80;;;12.90;99.90;;;;;;10514896;28;20302;-70
2023/05/13 05:17:34;;;;;;;10.60;5.37;;;13.60;99.90;;;;;;10515403;28;20522;-71
2023/05/13 05:22:35;;;;;;;9.70;4.97;;;13.90;99.90;;;;;;10515854;28;20620;-71
2023/05/13 05:27:35;;;;;;;6.83;3.97;;;13.90;99.90;;;;;;10516969;28;20230;-71
2023/05/13 05:32:36;;;;;;;4.27;3.50;;;13.80;99.90;;;;;;10504521;28;20218;-72
2023/05/13 05:37:36;;;;;;;5.47;3.53;;;13.50;99.90;;;;;;10510257;28;20305;-71
2023/05/13 05:42:37;;;;;;;4.33;3.47;;;13.50;99.90;;;;;;10492972;28;20237;-72
2023/05/13 05:47:38;;;;;;;3.70;3.40;;;13.60;99.90;;;;;;10505753;28;20218;-71
2023/05/13 05:52:38;;;;;;;4.77;3.23;;;14.00;99.90;;;;;;10503977;28;20290;-71
2023/05/13 05:57:45;;;;;;;4.67;2.90;;;15.10;99.90;;;;;;10509614;28;20223;-72
2023/05/13 06:02:47;;;;;;;3.27;2.30;;;17.20;99.90;;;;;;10490792;28;20220;-71
2023/05/13 06:07:48;;;;;;;6.17;2.83;;;19.40;99.90;;;;;;10510406;28;20229;-70
2023/05/13 06:12:50;;;;;;;6.30;2.57;;;21.10;99.90;;;;;;10508301;28;20313;-71
2023/05/13 06:17:50;;;;;;;3.13;2.07;;;21.60;99.90;;;;;;10494538;28;20238;-72
2023/05/13 06:22:51;;;;;;;2.53;2.27;;;22.30;99.90;;;;;;10511947;28;20221;-71
2023/05/13 06:27:51;;;;;;;4.13;2.10;;;22.60;99.90;;;;;;10518883;28;20229;-72
2023/05/13 06:32:53;;;;;;;2.30;2.10;;;23.20;97.10;;;;;;10513893;28;20309;-72
2023/05/13 06:37:54;;;;;;;4.77;2.17;;;23.30;94.70;;;;;;10512315;28;20222;-72
2023/05/13 06:42:55;;;;;;;2.53;2.10;;;23.90;92.70;;;;;;10504839;28;20209;-73
2023/05/13 06:47:55;;;;;;;3.70;2.00;;;24.50;90.10;;;;;;10519160;28;20219;-71
2023/05/13 06:52:57;;;;;;;2.40;2.20;;;24.40;86.20;;;;;;10521736;28;20228;-72
2023/05/13 06:57:58;;;;;;;3.40;1.97;;;24.00;83.10;;;;;;10514262;28;20219;-72
2023/05/13 07:02:58;;;;;;;1.77;1.67;;;24.00;82.10;;;;;;10500847;28;20746;-72
2023/05/13 07:07:59;;;;;;;5.87;2.00;;;23.60;83.50;;;;;;10513395;28;20246;-71
2023/05/13 07:13:03;;;;;;;1.83;1.73;;;22.10;87.20;;;;;;10518811;28;20223;-71
2023/05/13 07:18:04;;;;;;;3.10;2.00;;;21.60;88.40;;;;;;10519518;28;20245;-71
2023/05/13 07:23:04;;;;;;;2.30;1.83;;;20.80;90.40;;;;;;10519338;28;20253;-71
2023/05/13 07:28:05;;;;;;;2.70;2.10;;;20.70;90.70;;;;;;10499810;28;20624;-71
2023/05/13 07:33:06;;;;;;;3.57;2.10;;;21.00;90.00;;;;;;10519228;28;20235;-72
2023/05/13 07:38:08;;;;;;;1.73;1.63;;;21.50;90.40;;;;;;10500284;28;20738;-71
2023/05/13 07:43:09;;;;;;;4.33;1.80;;;22.50;82.90;;;;;;10519037;28;20447;-72
2023/05/13 07:48:13;;;;;;;2.63;1.90;;;24.20;77.40;;;;;;10510016;28;20223;-72
2023/05/13 07:53:13;;;;;;;2.33;1.90;;;24.50;73.10;;;;;;10512879;28;20671;-72
2023/05/13 07:58:14;;;;;;;3.60;1.90;;;25.80;69.40;;;;;;10507442;28;20206;-71
2023/05/13 08:03:15;;;;;;;2.70;1.83;;;26.50;64.50;;;;;;10517660;28;20246;-72
2023/05/13 08:08:16;;;;;;;2.60;1.77;;;27.20;61.60;;;;;;10510084;28;20226;-73
2023/05/13 08:13:16;;;;;;;3.13;2.00;;;27.40;59.40;;;;;;10516930;28;20221;-72
2023/05/13 08:18:17;;;;;;;2.90;1.80;;;27.00;58.20;;;;;;10516931;28;20238;-72
2023/05/13 08:23:17;;;;;;;2.77;2.03;;;26.70;57.20;;;;;;10516430;28;20225;-72
2023/05/13 08:28:18;;;;;;;2.37;2.00;;;26.30;58.30;;;;;;10517530;28;20237;-72
2023/05/13 08:33:19;;;;;;;2.90;2.20;;;28.10;56.10;;;;;;10497581;28;20230;-72
2023/05/13 08:38:19;;;;;;;3.53;2.00;;;28.20;54.90;;;;;;10508712;28;20218;-72
2023/05/13 08:43:22;;;;;;;2.73;2.00;;;28.20;54.20;;;;;;10508966;28;20230;-73
2023/05/13 08:48:23;;;;;;;1.83;1.73;;;28.10;54.90;;;;;;10505627;28;20230;-72
2023/05/13 08:53:25;;;;;;;2.70;1.70;;;29.00;52.80;;;;;;10508930;28;20269;-72
2023/05/13 08:58:25;;;;;;;2.10;1.57;;;29.50;50.60;;;;;;10513073;28;20252;-73
2023/05/13 09:03:27;;;;;;;2.27;1.73;;;29.40;48.80;;;;;;10495216;28;20230;-72
2023/05/13 09:08:28;;;;;;;4.30;2.10;;;29.10;49.80;;;;;;10511793;28;20237;-72
2023/05/13 09:13:28;;;;;;;2.23;1.90;;;28.50;50.00;;;;;;10491169;28;20237;-72
2023/05/13 09:18:32;;;;;;;3.80;1.63;;;28.70;50.20;;;;;;10512189;28;20214;-72
2023/05/13 09:23:33;;;;;;;2.00;1.77;;;29.40;48.20;;;;;;10515839;28;20214;-72
2023/05/13 09:28:33;;;;;;;2.43;2.00;;;30.00;46.90;;;;;;10498908;28;20326;-72
2023/05/13 09:33:34;;;;;;;4.93;1.97;;;29.50;47.10;;;;;;10513902;28;20238;-73
2023/05/13 09:38:37;;;;;;;4.53;2.20;;;29.40;48.00;;;;;;10514926;28;20226;-72
2023/05/13 09:43:38;;;;;;;5.13;2.00;;;28.70;47.80;;;;;;10509264;28;20218;-73
2023/05/13 09:48:42;;;;;;;4.63;1.90;;;29.10;48.50;;;;;;10491421;28;20280;-72
2023/05/13 09:53:46;;;;;;;2.63;2.17;;;29.90;46.50;;;;;;10507130;28;20228;-72
2023/05/13 09:58:55;;;;;;;3.23;2.23;;;29.50;47.50;;;;;;10509906;28;20221;-72
2023/05/13 10:04:00;;;;;;;3.40;2.20;;;29.80;46.80;;;;;;10507774;28;20225;-72
2023/05/13 10:09:04;;;;;;;4.40;1.93;;;30.50;46.70;;;;;;10511967;28;20215;-72
2023/05/13 10:14:05;;;;;;;3.60;2.00;;;32.00;43.60;;;;;;10505713;28;20271;-72
2023/05/13 10:19:09;;;;;;;5.53;2.20;;;32.00;41.80;;;;;;10512867;28;20215;-71
2023/05/13 10:24:10;;;;;;;2.23;2.03;;;30.60;45.00;;;;;;10518539;28;20268;-71
2023/05/13 10:29:11;;;;;;;4.27;1.80;;;29.80;47.40;;;;;;10495822;28;20230;-73
2023/05/13 10:34:12;;;;;;;3.03;2.30;;;30.70;45.80;;;;;;10486766;28;20235;-72
2023/05/13 10:39:46;;;;;;;4.43;2.30;;;30.30;45.80;;;;;;10512904;28;20225;-72
2023/05/13 10:44:53;;;;;;;4.80;2.17;;;29.10;48.40;;;;;;10509526;28;20230;-71
2023/05/13 10:49:53;;;;;;;3.37;2.40;;;28.60;49.40;;;;;;10494344;28;20210;-71
2023/05/13 10:55:01;;;;;;;2.50;2.30;;;28.90;48.10;;;;;;10517088;28;20245;-72
2023/05/13 11:00:13;;;;;;;5.90;2.40;;;27.50;50.00;;;;;;10486471;28;20237;-72
2023/05/13 11:05:20;;;;;;;2.40;2.20;;;26.20;54.00;;;;;;10507064;28;20303;-71
2023/05/13 11:10:25;;;;;;;3.17;2.27;;;25.10;59.30;;;;;;10508861;28;20555;-71
2023/05/13 11:15:44;;;;;;;3.33;2.10;;;25.10;59.80;;;;;;10513150;28;20227;-71
2023/05/13 11:20:57;;;;;;;3.93;2.33;;;26.70;57.90;;;;;;10518452;28;20217;-72
2023/05/13 11:26:18;;;;;;;3.67;2.30;;;27.30;53.70;;;;;;10518255;28;20699;-72
2023/05/13 11:31:20;;;;;;;4.73;2.77;;;25.70;57.50;;;;;;10524374;28;20222;-71
2023/05/13 11:36:21;;;;;;;5.40;2.90;;;24.00;66.30;;;;;;10518047;28;20219;-71
2023/05/13 11:41:22;;;;;;;6.73;2.97;;;23.00;73.80;;;;;;10517809;28;20226;-71
2023/05/13 11:46:24;;;;;;;5.97;3.20;;;22.70;79.90;;;;;;10517258;28;20224;-70
2023/05/13 11:51:25;;;;;;;8.50;3.07;;;22.80;83.40;;;;;;10515845;28;20636;-71
2023/05/13 11:56:27;;;;;;;3.43;2.80;;;23.00;86.70;;;;;;10519069;28;20271;-71
2023/05/13 12:01:27;;;;;;;4.47;2.90;;;23.30;85.20;;;;;;10514571;28;20363;-71
2023/05/13 12:06:29;;;;;;;6.97;3.00;;;23.60;86.70;;;;;;10511165;28;20283;-71
2023/05/13 12:11:29;;;;;;;5.33;3.10;;;24.00;86.10;;;;;;10514914;28;20282;-72
2023/05/13 12:16:30;;;;;;;4.73;2.67;;;24.50;84.40;;;;;;10511677;28;20641;-71
2023/05/13 12:21:32;;;;;;;3.77;2.40;;;24.70;81.10;;;;;;10524569;28;20242;-71
2023/05/13 12:26:32;;;;;;;3.87;2.27;;;24.90;66.60;;;;;;10508053;28;20271;-71
2023/05/13 12:31:36;;;;;;;2.67;2.30;;;25.10;66.00;;;;;;10511873;28;20764;-70
2023/05/13 12:36:38;;;;;;;4.40;2.80;;;24.70;62.40;;;;;;10498606;28;20223;-70
2023/05/13 12:41:41;;;;;;;3.20;2.50;;;24.30;62.70;;;;;;10511002;28;20679;-71
2023/05/13 12:46:55;;;;;;;3.13;2.77;;;23.80;67.10;;;;;;10511712;28;20223;-71
2023/05/13 12:51:56;;;;;;;3.77;2.47;;;22.70;63.50;;;;;;10513424;28;20215;-71
2023/05/13 12:56:57;;;;;;;3.97;2.30;;;22.40;65.30;;;;;;10496766;28;20214;-70
2023/05/13 13:01:57;;;;;;;3.10;2.50;;;22.30;65.90;;;;;;10508353;28;20225;-70
2023/05/13 13:06:58;;;;;;;3.80;2.73;;;22.00;65.20;;;;;;10489869;28;20246;-71
2023/05/13 13:11:58;;;;;;;5.63;2.70;;;21.80;66.90;;;;;;10512889;28;20218;-71
2023/05/13 13:16:59;;;;;;;6.07;2.30;;;21.90;67.50;;;;;;10496106;28;20225;-71
2023/05/13 13:21:59;;;;;;;3.13;2.83;;;21.50;69.50;;;;;;10507494;28;20245;-70
2023/05/13 13:27:00;;;;;;;6.77;2.83;;;20.60;72.00;;;;;;10520358;28;20227;-71
2023/05/13 13:32:01;;;;;;;6.23;2.80;;;19.80;76.20;;;;;;10513567;28;20262;-71
2023/05/13 13:37:01;;;;;;;7.73;2.83;;;19.20;80.90;;;;;;10505624;28;20229;-71
2023/05/13 13:42:04;;;;;;;3.33;3.00;;;18.50;91.20;;;;;;10506759;28;20220;-71
2023/05/13 13:47:05;;;;;;;6.83;2.90;;;18.00;95.60;;;;;;10520780;28;20948;-70
2023/05/13 13:52:06;;;;;;;5.30;2.67;;;18.10;93.60;;;;;;10511310;28;20219;-70
2023/05/13 13:57:10;;;;;;;6.87;3.20;;;18.70;90.20;;;;;;10513521;28;20240;-72
2023/05/13 14:02:10;;;;;;;4.90;3.00;;;19.40;87.20;;;;;;10504960;28;20680;-72
2023/05/13 14:07:11;;;;;;;2.37;2.17;;;20.20;82.60;;;;;;10520761;28;20221;-71
2023/05/13 14:12:11;;;;;;;4.23;2.40;;;20.70;77.40;;;;;;10504986;28;20300;-70
2023/05/13 14:17:12;;;;;;;2.87;2.00;;;20.70;77.20;;;;;;10504232;28;20241;-71
2023/05/13 14:22:12;;;;;;;4.57;2.47;;;20.70;74.50;;;;;;10512914;28;20228;-70
2023/05/13 14:27:16;;;;;;;5.77;2.40;;;20.50;75.60;;;;;;10514775;28;20226;-71
2023/05/13 14:32:17;;;;;;;5.87;2.80;;;20.60;75.20;;;;;;10512641;28;20343;-71
2023/05/13 14:37:18;;;;;;;2.73;2.40;;;20.50;73.90;;;;;;10504427;28;20347;-74
2023/05/13 14:42:18;;;;;;;3.90;2.10;;;20.60;71.80;;;;;;10519737;28;20232;-71
2023/05/13 14:47:19;;;;;;;6.70;3.57;;;20.60;70.80;;;;;;10513325;28;20245;-71
2023/05/13 14:52:20;;;;;;;4.93;3.00;;;20.70;69.20;;;;;;10520081;28;20230;-71
2023/05/13 14:57:20;;;;;;;8.10;3.40;;;20.90;69.20;;;;;;10519288;28;20253;-71
2023/05/13 15:02:21;;;;;;;6.27;3.50;;;20.80;68.10;;;;;;10495219;28;20727;-71
2023/05/13 15:07:21;;;;;;;4.87;2.47;;;20.80;70.00;;;;;;10501159;28;20218;-71
2023/05/13 15:12:22;;;;;;;4.00;2.40;;;20.80;70.80;;;;;;10529907;28;20493;-71
2023/05/13 15:17:22;;;;;;;7.10;3.13;;;21.00;72.40;;;;;;10512852;28;20230;-70
2023/05/13 15:22:23;;;;;;;4.47;3.00;;;21.10;71.20;;;;;;10518012;28;20279;-71
2023/05/13 15:27:27;;;;;;;2.70;2.20;;;21.00;71.60;;;;;;10520571;28;20676;-71
2023/05/13 15:32:28;;;;;;;3.27;2.10;;;20.80;70.50;;;;;;10524358;28;20222;-71
2023/05/13 15:37:29;;;;;;;2.40;2.00;;;20.80;70.60;;;;;;10494483;28;20885;-72
2023/05/13 15:42:30;;;;;;;4.37;2.10;;;21.10;71.40;;;;;;10498307;28;20302;-71
2023/05/13 15:47:30;;;;;;;2.63;1.80;;;20.80;63.50;;;;;;10517236;28;20232;-71
2023/05/13 15:52:31;;;;;;;3.10;1.90;;;20.50;65.20;;;;;;10511681;28;20613;-72
2023/05/13 15:57:31;;;;;;;2.20;1.63;;;20.30;64.90;;;;;;10517437;28;20229;-71
2023/05/13 16:02:38;;;;;;;3.53;2.20;;;20.10;66.10;;;;;;10515160;28;20225;-72
2023/05/13 16:07:38;;;;;;;4.20;2.10;;;19.90;67.00;;;;;;10516420;28;20593;-70
2023/05/13 16:12:39;;;;;;;3.43;2.17;;;19.80;69.20;;;;;;10513256;28;20230;-71
2023/05/13 16:17:39;;;;;;;5.43;2.10;;;19.70;69.30;;;;;;10513539;28;20701;-73
2023/05/13 16:22:40;;;;;;;2.40;2.00;;;19.70;70.20;;;;;;10520015;28;20210;-71
2023/05/13 16:27:43;;;;;;;2.53;2.20;;;19.60;70.80;;;;;;10501998;28;20695;-71
2023/05/13 16:32:51;;;;;;;1.87;1.70;;;19.60;71.20;;;;;;10508430;28;20215;-71
2023/05/13 16:37:52;;;;;;;2.17;1.80;;;19.60;71.70;;;;;;10513868;28;20229;-70
2023/05/13 16:42:53;;;;;;;4.83;2.00;;;19.30;73.80;;;;;;10510462;28;20854;-71
2023/05/13 16:47:53;;;;;;;2.57;2.07;;;19.00;74.30;;;;;;10517499;28;20302;-71
2023/05/13 16:52:54;;;;;;;2.87;2.13;;;18.90;76.00;;;;;;10513987;28;20329;-71
2023/05/13 16:57:54;;;;;;;2.57;2.37;;;19.10;76.10;;;;;;10491535;28;20229;-72
2023/05/13 17:02:55;;;;;;;2.60;2.20;;;19.10;75.70;;;;;;10511919;28;20734;-71
2023/05/13 17:07:55;;;;;;;3.83;2.00;;;19.00;76.30;;;;;;10490995;28;20328;-72
2023/05/13 17:12:56;;;;;;;2.93;2.10;;;18.90;77.20;;;;;;10497910;28;20219;-71
2023/05/13 17:17:56;;;;;;;3.30;2.47;;;18.90;77.50;;;;;;10494013;28;20704;-72
2023/05/13 17:22:57;;;;;;;4.43;2.20;;;18.90;78.40;;;;;;10515624;28;20225;-71
2023/05/13 17:27:57;;;;;;;5.40;2.40;;;18.90;78.10;;;;;;10511892;28;20253;-72
2023/05/13 17:32:58;;;;;;;2.60;2.40;;;18.70;78.20;;;;;;10505458;28;20268;-72
2023/05/13 17:37:58;;;;;;;2.40;2.20;;;18.60;79.20;;;;;;10516593;28;20323;-71
2023/05/13 17:43:02;;;;;;;4.00;2.57;;;18.70;80.10;;;;;;10489206;28;20222;-72
2023/05/13 17:48:03;;;;;;;5.67;2.70;;;18.60;80.50;;;;;;10520234;28;20617;-72
2023/05/13 17:53:03;;;;;;;3.40;2.77;;;18.70;81.30;;;;;;10506998;28;20226;-71
2023/05/13 17:58:04;;;;;;;5.03;2.70;;;18.80;80.80;;;;;;10504373;28;20344;-71
2023/05/13 18:03:04;;;;;;;3.30;2.87;;;18.70;81.60;;;;;;10501952;28;20220;-71
2023/05/13 18:08:05;;;;;;;4.77;2.40;;;18.60;81.60;;;;;;10514334;28;20258;-71
2023/05/13 18:13:05;;;;;;;6.13;3.07;;;18.50;81.30;;;;;;10513060;28;20225;-70
2023/05/13 18:18:06;;;;;;;5.17;2.77;;;18.40;82.70;;;;;;10494255;28;20555;-71
2023/05/13 18:23:06;;;;;;;2.83;2.50;;;18.30;82.90;;;;;;10506184;28;20237;-71
2023/05/13 18:28:07;;;;;;;4.40;3.30;;;18.10;83.80;;;;;;10515620;28;20225;-71
2023/05/13 18:33:07;;;;;;;5.40;2.90;;;18.00;84.70;;;;;;10520404;28;20223;-71
2023/05/13 18:38:08;;;;;;;4.70;2.67;;;17.80;85.70;;;;;;10504692;28;20304;-71
2023/05/13 18:43:09;;;;;;;2.83;2.63;;;17.70;86.70;;;;;;10501087;28;20678;-71
2023/05/13 18:48:09;;;;;;;3.23;2.40;;;17.60;87.90;;;;;;10505362;28;20278;-71
2023/05/13 18:53:10;;;;;;;3.37;2.63;;;17.40;88.70;;;;;;10512088;28;20224;-72
2023/05/13 18:58:11;;;;;;;2.40;2.20;;;17.30;89.40;;;;;;10505191;28;20673;-70
2023/05/13 19:03:11;;;;;;;3.57;2.50;;;17.20;90.00;;;;;;10512247;28;20215;-71
2023/05/13 19:08:12;;;;;;;2.87;2.57;;;17.00;90.50;;;;;;10494749;28;20226;-71
2023/05/13 19:13:15;;;;;;;2.70;2.23;;;16.90;91.10;;;;;;10503941;28;20325;-71
2023/05/13 19:18:16;;;;;;;4.93;2.93;;;16.70;91.80;;;;;;10512306;28;20219;-71
2023/05/13 19:23:16;;;;;;;3.57;2.60;;;16.50;92.80;;;;;;10504715;28;20222;-71
2023/05/13 19:28:17;;;;;;;3.57;2.80;;;16.40;93.70;;;;;;10501278;28;20279;-71
2023/05/13 19:33:18;;;;;;;3.40;2.60;;;16.20;94.50;;;;;;10519561;28;20872;-72
2023/05/13 19:38:19;;;;;;;3.90;2.83;;;16.00;95.60;;;;;;10526797;28;20233;-72
2023/05/13 19:43:20;;;;;;;5.13;3.30;;;15.80;97.70;;;;;;10502261;28;20216;-72
2023/05/13 19:48:20;;;;;;;3.50;3.20;;;15.70;99.90;;;;;;10518498;28;20227;-73
2023/05/13 19:53:21;;;;;;;4.17;3.23;;;15.60;99.90;;;;;;10517810;28;20215;-72
2023/05/13 19:58:21;;;;;;;3.80;3.40;;;15.50;99.90;;;;;;10519700;28;20215;-70
2023/05/13 20:03:22;;;;;;;6.90;4.30;;;15.40;99.90;;;;;;10500022;28;20225;-71
2023/05/13 20:08:22;;;;;;;5.73;4.13;;;15.30;99.90;;;;;;10498439;28;20245;-71
2023/05/13 20:13:23;;;;;;;6.90;4.30;;;15.10;99.90;;;;;;10523073;28;20250;-71
2023/05/13 20:18:24;;;;;;;7.97;4.23;;;15.10;99.90;;;;;;10515946;28;20207;-71
2023/05/13 20:23:24;;;;;;;8.83;4.17;;;15.00;99.90;;;;;;10517016;28;20203;-72
2023/05/13 20:28:25;;;;;;;5.87;4.13;;;14.90;99.90;;;;;;10514632;28;20321;-71
2023/05/13 20:33:26;;;;;;;4.97;3.97;;;14.80;99.90;;;;;;10493685;28;20207;-71
2023/05/13 20:38:26;;;;;;;7.23;4.60;;;14.70;99.90;;;;;;10515694;28;20207;-70
2023/05/13 20:43:27;;;;;;;7.20;4.90;;;14.60;99.90;;;;;;10515902;28;20211;-72
2023/05/13 20:48:30;;;;;;;6.70;5.27;;;14.60;99.90;;;;;;10513763;28;20221;-72
2023/05/13 20:53:32;;;;;;;6.33;5.67;;;14.70;99.90;;;;;;10491850;28;20246;-71
2023/05/13 20:58:33;;;;;;;10.03;6.37;;;14.60;99.90;;;;;;10493534;28;20203;-71
2023/05/13 21:03:36;;;;;;;7.50;6.20;;;14.50;99.90;;;;;;10491206;28;20708;-71
2023/05/13 21:08:38;;;;;;;8.33;5.67;;;14.40;99.90;;;;;;10493663;28;20239;-71
2023/05/13 21:13:39;;;;;;;7.97;6.23;;;14.30;99.90;;;;;;10510623;28;20223;-71
2023/05/13 21:18:40;;;;;;;10.53;6.30;;;14.20;99.90;;;;;;10511154;28;20219;-72
2023/05/13 21:23:42;;;;;;;7.07;5.70;;;14.20;99.90;;;;;;10510188;28;20218;-70
2023/05/13 21:28:43;;;;;;;7.50;5.47;;;14.10;99.90;;;;;;10511121;28;20323;-71
2023/05/13 21:33:44;;;;;;;6.80;5.63;;;14.00;99.90;;;;;;10492195;28;20328;-72
2023/05/13 21:38:44;;;;;;;6.40;5.60;;;14.00;99.90;;;;;;10491057;28;20218;-72
2023/05/13 21:43:45;;;;;;;8.93;5.67;;;14.00;99.90;;;;;;10509887;28;20249;-70
2023/05/13 21:48:45;;;;;;;7.10;5.23;;;13.90;99.90;;;;;;10499087;28;20239;-70
2023/05/13 21:53:46;;;;;;;7.70;5.70;;;13.90;99.90;;;;;;10509878;28;20245;-71
2023/05/13 21:58:48;;;;;;;6.33;5.57;;;13.90;99.90;;;;;;10516487;28;20302;-71
2023/05/13 22:03:49;;;;;;;8.23;5.50;;;13.90;99.90;;;;;;10503779;28;20247;-71
2023/05/13 22:08:50;;;;;;;5.63;4.73;;;14.00;99.90;;;;;;10508300;28;20247;-71
2023/05/13 22:13:50;;;;;;;7.63;5.53;;;14.00;99.90;;;;;;10504432;28;20303;-71
2023/05/13 22:18:57;;;;;;;8.17;6.23;;;13.80;99.90;;;;;;10509732;28;20219;-71
2023/05/13 22:23:57;;;;;;;8.00;5.73;;;13.70;99.90;;;;;;10480333;28;20306;-71
2023/05/13 22:28:58;;;;;;;7.67;5.57;;;13.50;99.90;;;;;;10510533;28;20768;-70
2023/05/13 22:33:58;;;;;;;5.83;5.23;;;13.40;99.90;;;;;;10513112;28;20214;-71
2023/05/13 22:39:02;;;;;;;6.40;5.20;;;13.30;99.90;;;;;;10506230;28;20211;-72
2023/05/13 22:44:02;;;;;;;9.27;5.63;;;13.20;99.90;;;;;;10514205;28;20223;-70
2023/05/13 22:49:05;;;;;;;6.00;5.40;;;13.20;99.90;;;;;;10510723;28;20234;-71
2023/05/13 22:54:06;;;;;;;5.83;5.33;;;13.10;99.90;;;;;;10505082;28;20254;-71
2023/05/13 22:59:06;;;;;;;7.37;5.07;;;13.00;99.90;;;;;;10509359;28;20234;-71
2023/05/13 23:04:07;;;;;;;7.73;5.30;;;13.00;99.90;;;;;;10511986;28;20815;-71
2023/05/13 23:09:09;;;;;;;6.50;5.50;;;12.90;99.90;;;;;;10519594;28;20225;-70
2023/05/13 23:14:09;;;;;;;6.03;5.43;;;12.90;99.90;;;;;;10511938;28;20235;-71
2023/05/13 23:19:10;;;;;;;6.80;5.17;;;12.90;99.90;;;;;;10501718;28;20689;-71
2023/05/13 23:24:10;;;;;;;6.37;5.07;;;12.80;99.90;;;;;;10518983;28;20249;-71
2023/05/13 23:29:11;;;;;;;5.63;5.00;;;12.80;99.90;;;;;;10519124;28;20222;-70
2023/05/13 23:34:11;;;;;;;7.37;5.50;;;12.70;99.90;;;;;;10497576;28;20302;-71
2023/05/13 23:39:12;;;;;;;6.47;5.57;;;12.70;99.90;;;;;;10519379;28;20206;-71
2023/05/13 23:44:13;;;;;;;9.37;5.63;;;12.70;99.90;;;;;;10511218;28;20710;-71
2023/05/13 23:49:15;;;;;;;6.80;5.97;;;12.60;99.90;;;;;;10501856;28;20222;-71
2023/05/13 23:54:15;;;;;;;6.10;5.10;;;12.50;99.90;;;;;;10528484;28;20246;-70
2023/05/13 23:59:16;;;;;;;5.80;4.90;;;12.50;99.90;;;;;;10510007;28;20241;-72
